createdAt,value
2019-04-16T00:02:22.841Z,90.30
2019-04-16T00:04:56.995Z,90.30
2019-04-16T00:07:33.031Z,90.30
2019-04-16T00:10:09.112Z,90.60
2019-04-16T00:12:59.511Z,90.70
2019-04-16T00:15:31.074Z,90.70
2019-04-16T00:18:24.539Z,90.70
2019-04-16T00:21:01.042Z,90.80
2019-04-16T00:23:52.459Z,90.70
2019-04-16T00:26:26.501Z,90.80
2019-04-16T00:28:55.346Z,90.80
2019-04-16T00:31:26.166Z,90.70
2019-04-16T00:33:57.179Z,90.60
2019-04-16T00:36:28.015Z,90.50
2019-04-16T00:39:00.099Z,90.50
2019-04-16T00:41:30.863Z,90.60
2019-04-16T00:44:02.535Z,90.60
2019-04-16T00:46:34.041Z,90.70
2019-04-16T00:49:05.000Z,90.70
2019-04-16T00:51:36.507Z,90.60
2019-04-16T00:54:10.629Z,90.50
2019-04-16T00:57:00.863Z,90.40
2019-04-16T00:59:31.970Z,90.30
2019-04-16T01:02:02.960Z,90.20
2019-04-16T01:04:33.618Z,90.10
2019-04-16T01:07:04.747Z,90.20
2019-04-16T01:09:38.779Z,90.20
2019-04-16T01:12:10.020Z,90.20
2019-04-16T01:14:40.897Z,89.90
2019-04-16T01:17:11.742Z,89.30
2019-04-16T01:19:46.925Z,88.80
2019-04-16T01:22:19.092Z,88.80
2019-04-16T01:24:52.619Z,88.90
2019-04-16T01:27:28.519Z,88.60
2019-04-16T01:30:05.158Z,89.00
2019-04-16T01:32:58.834Z,88.80
2019-04-16T01:35:41.589Z,89.00
2019-04-16T01:38:28.660Z,88.40
2019-04-16T01:41:07.478Z,87.90
2019-04-16T01:43:43.231Z,87.50
2019-04-16T01:46:15.509Z,86.30
2019-04-16T01:48:47.743Z,85.40
2019-04-16T01:51:19.104Z,84.90
2019-04-16T01:54:03.224Z,85.00
2019-04-16T01:56:36.447Z,85.30
2019-04-16T01:59:09.268Z,85.30
2019-04-16T02:01:49.796Z,86.10
2019-04-16T02:04:23.086Z,86.50
2019-04-16T02:06:54.374Z,85.60
2019-04-16T02:09:34.135Z,86.50
2019-04-16T02:12:01.105Z,86.60
2019-04-16T02:14:32.465Z,85.80
2019-04-16T02:17:03.339Z,86.20
2019-04-16T02:19:36.287Z,86.50
2019-04-16T02:22:07.242Z,86.10
2019-04-16T02:24:39.595Z,85.80
2019-04-16T02:27:11.253Z,85.20
2019-04-16T02:29:45.619Z,84.60
2019-04-16T02:32:17.109Z,85.40
2019-04-16T02:34:49.879Z,85.20
2019-04-16T02:37:25.753Z,84.30
2019-04-16T02:39:58.767Z,84.20
2019-04-16T02:42:32.084Z,83.20
2019-04-16T02:45:04.847Z,83.40
2019-04-16T02:47:39.880Z,83.40
2019-04-16T02:50:10.921Z,83.70
2019-04-16T02:52:52.561Z,82.20
2019-04-16T02:55:34.217Z,82.10
2019-04-16T02:58:22.652Z,82.40
2019-04-16T03:00:58.037Z,82.70
2019-04-16T03:03:42.588Z,82.60
2019-04-16T03:06:15.030Z,82.00
2019-04-16T03:08:52.889Z,82.60
2019-04-16T03:11:24.443Z,81.10
2019-04-16T03:13:58.223Z,79.90
2019-04-16T03:17:02.344Z,80.60
2019-04-16T03:19:34.814Z,81.20
2019-04-16T03:22:07.966Z,80.30
2019-04-16T03:24:40.218Z,80.40
2019-04-16T03:27:15.242Z,79.90
2019-04-16T03:32:51.580Z,79.60
2019-04-16T03:35:26.398Z,78.90
2019-04-16T03:38:04.373Z,79.00
2019-04-16T03:40:34.439Z,79.10
2019-04-16T03:43:05.850Z,79.70
2019-04-16T03:45:37.577Z,79.40
2019-04-16T03:48:09.774Z,79.20
2019-04-16T03:50:42.042Z,78.70
2019-04-16T03:53:16.456Z,78.40
2019-04-16T03:55:46.429Z,78.00
2019-04-16T03:58:20.961Z,78.20
2019-04-16T04:00:52.545Z,78.30
2019-04-16T04:03:26.074Z,77.90
2019-04-16T04:05:57.087Z,77.20
2019-04-16T04:08:28.439Z,77.00
2019-04-16T04:11:02.493Z,76.60
2019-04-16T04:13:34.446Z,77.30
2019-04-16T04:16:33.420Z,77.90
2019-04-16T04:19:16.012Z,78.10
2019-04-16T04:21:57.078Z,76.70
2019-04-16T04:24:32.453Z,75.50
2019-04-16T04:27:04.822Z,75.20
2019-04-16T04:29:39.726Z,76.30
2019-04-16T04:32:12.460Z,77.10
2019-04-16T04:34:45.406Z,77.00
2019-04-16T04:37:23.456Z,76.50
2019-04-16T04:39:55.922Z,75.60
2019-04-16T04:42:33.231Z,75.30
2019-04-16T04:45:08.353Z,74.10
2019-04-16T04:47:44.575Z,74.20
2019-04-16T04:50:13.423Z,74.00
2019-04-16T04:52:50.210Z,73.80
2019-04-16T04:55:31.155Z,73.10
2019-04-16T04:58:03.556Z,73.20
2019-04-16T05:00:40.254Z,73.10
2019-04-16T05:03:15.624Z,72.60
2019-04-16T05:06:08.088Z,72.00
2019-04-16T05:11:37.512Z,70.90
2019-04-16T05:14:11.599Z,71.20
2019-04-16T05:16:44.127Z,71.80
2019-04-16T05:19:21.962Z,71.70
2019-04-16T05:21:55.230Z,71.80
2019-04-16T05:24:37.550Z,70.70
2019-04-16T05:27:11.046Z,70.10
2019-04-16T05:29:42.923Z,71.20
2019-04-16T05:32:15.571Z,71.30
2019-04-16T05:34:50.231Z,71.00
2019-04-16T05:37:23.616Z,70.60
2019-04-16T05:40:00.154Z,70.40
2019-04-16T05:42:35.223Z,69.50
2019-04-16T05:45:26.800Z,69.80
2019-04-16T05:48:02.936Z,69.90
2019-04-16T05:50:38.564Z,69.20
2019-04-16T05:53:13.662Z,70.20
2019-04-16T05:56:13.175Z,68.60
2019-04-16T05:59:04.462Z,68.80
2019-04-16T06:01:42.406Z,66.30
2019-04-16T06:04:14.435Z,64.90
2019-04-16T06:06:53.516Z,65.20
2019-04-16T06:09:45.308Z,65.80
2019-04-16T06:12:20.542Z,65.20
2019-04-16T06:15:10.803Z,64.10
2019-04-16T06:17:46.219Z,65.50
2019-04-16T06:20:27.655Z,66.50
2019-04-16T06:23:06.504Z,65.60
2019-04-16T06:25:42.783Z,63.40
2019-04-16T06:28:16.995Z,63.00
2019-04-16T06:33:51.668Z,62.70
2019-04-16T06:36:42.256Z,61.10
2019-04-16T06:39:19.112Z,59.40
2019-04-16T06:41:55.227Z,60.80
2019-04-16T06:44:30.836Z,59.80
2019-04-16T06:47:14.209Z,58.70
2019-04-16T06:49:53.747Z,59.80
2019-04-16T06:52:42.907Z,60.10
2019-04-16T06:55:42.786Z,59.80
2019-04-16T06:58:18.020Z,60.10
2019-04-16T07:01:22.946Z,59.50
2019-04-16T07:03:59.651Z,57.20
2019-04-16T07:06:36.290Z,58.00
2019-04-16T07:09:26.178Z,55.90
2019-04-16T07:12:07.447Z,55.60
2019-04-16T07:14:39.750Z,56.80
2019-04-16T07:17:18.725Z,56.50
2019-04-16T07:19:56.495Z,55.00
2019-04-16T07:22:27.676Z,59.00
2019-04-16T07:25:15.616Z,57.30
2019-04-16T07:27:52.649Z,60.30
2019-04-16T07:30:30.098Z,59.50
2019-04-16T07:33:15.127Z,58.90
2019-04-16T07:35:51.072Z,60.10
2019-04-16T07:38:43.286Z,59.10
2019-04-16T07:41:21.821Z,58.20
2019-04-16T07:44:09.672Z,56.30
2019-04-16T07:46:38.753Z,58.90
2019-04-16T07:49:15.376Z,57.80
2019-04-16T07:52:07.008Z,54.80
2019-04-16T07:54:51.197Z,57.80
2019-04-16T07:57:23.591Z,60.10
2019-04-16T07:59:54.443Z,59.80
2019-04-16T08:02:25.002Z,60.10
2019-04-16T08:04:57.087Z,60.30
2019-04-16T08:07:28.078Z,61.70
2019-04-16T08:10:02.060Z,61.90
2019-04-16T08:12:33.368Z,61.60
2019-04-16T08:15:13.938Z,61.70
2019-04-16T08:17:41.286Z,62.10
2019-04-16T08:20:13.886Z,61.00
2019-04-16T08:22:47.310Z,61.50
2019-04-16T08:25:18.240Z,60.80
2019-04-16T08:27:50.770Z,61.10
2019-04-16T08:30:21.089Z,61.60
2019-04-16T08:32:51.934Z,62.20
2019-04-16T08:35:22.608Z,61.50
2019-04-16T08:37:53.315Z,62.90
2019-04-16T08:40:24.093Z,63.40
2019-04-16T08:42:57.281Z,63.00
2019-04-16T08:45:27.150Z,60.60
2019-04-16T08:47:57.703Z,61.40
2019-04-16T08:50:28.091Z,60.70
2019-04-16T08:52:58.557Z,59.70
2019-04-16T08:55:29.225Z,62.00
2019-04-16T08:57:59.619Z,62.00
2019-04-16T09:00:38.455Z,61.70
2019-04-16T09:03:09.107Z,62.90
2019-04-16T09:05:41.534Z,63.70
2019-04-16T09:08:21.600Z,61.70
2019-04-16T09:10:49.175Z,61.30
2019-04-16T09:13:24.547Z,61.60
2019-04-16T09:15:55.483Z,61.70
2019-04-16T09:18:33.192Z,61.80
2019-04-16T09:21:07.160Z,62.30
2019-04-16T09:23:36.518Z,62.90
2019-04-16T09:26:14.163Z,62.50
2019-04-16T09:29:01.030Z,62.70
2019-04-16T09:31:37.803Z,62.70
2019-04-16T09:34:09.905Z,64.50
2019-04-16T09:47:15.642Z,65.80
2019-04-16T09:55:53.555Z,64.40
2019-04-16T09:58:30.524Z,65.40
2019-04-16T10:04:24.125Z,65.60
2019-04-16T10:09:51.402Z,66.10
2019-04-16T10:12:26.872Z,66.40
2019-04-16T10:14:57.751Z,66.90
2019-04-16T10:17:29.695Z,67.30
2019-04-16T10:20:00.611Z,66.70
2019-04-16T10:22:31.881Z,66.30
2019-04-16T10:25:12.993Z,66.10
2019-04-16T10:27:51.098Z,65.90
2019-04-16T10:30:26.106Z,66.30
2019-04-16T10:32:56.926Z,67.30
2019-04-16T10:35:27.610Z,68.40
2019-04-16T10:38:00.108Z,67.40
2019-04-16T10:40:35.702Z,66.70
2019-04-16T10:43:22.091Z,67.50
2019-04-16T10:45:54.245Z,69.70
2019-04-16T10:48:42.933Z,70.90
2019-04-16T10:51:15.678Z,71.30
2019-04-16T10:53:51.537Z,71.50
2019-04-16T10:56:29.398Z,71.90
2019-04-16T10:59:08.103Z,72.40
2019-04-16T11:01:46.829Z,72.50
2019-04-16T11:04:35.428Z,72.20
2019-04-16T11:07:17.072Z,72.80
2019-04-16T11:09:48.084Z,73.70
2019-04-16T11:12:19.874Z,74.20
2019-04-16T11:14:50.685Z,74.50
2019-04-16T11:17:23.057Z,74.80
2019-04-16T11:19:55.076Z,74.70
2019-04-16T11:22:26.056Z,75.50
2019-04-16T11:24:57.232Z,74.90
2019-04-16T11:27:27.945Z,75.00
2019-04-16T11:30:03.999Z,74.70
2019-04-16T11:35:25.309Z,75.80
2019-04-16T11:37:56.389Z,75.10
2019-04-16T11:40:27.333Z,75.70
2019-04-16T11:42:58.488Z,76.10
2019-04-16T11:45:29.243Z,77.40
2019-04-16T11:48:01.258Z,78.10
2019-04-16T11:50:35.810Z,78.60
2019-04-16T11:53:08.320Z,79.10
2019-04-16T11:55:41.013Z,79.10
2019-04-16T11:58:22.794Z,78.60
2019-04-16T12:01:04.872Z,78.20
2019-04-16T12:03:56.292Z,78.20
2019-04-16T12:06:32.448Z,78.80
2019-04-16T12:09:04.586Z,78.50
2019-04-16T12:11:43.208Z,79.00
2019-04-16T12:14:34.665Z,78.90
2019-04-16T12:17:17.543Z,79.30
2019-04-16T12:19:49.829Z,79.00
2019-04-16T12:22:35.819Z,79.00
2019-04-16T12:25:26.613Z,79.30
2019-04-16T12:28:15.177Z,78.90
2019-04-16T12:30:59.555Z,79.20
2019-04-16T12:33:32.031Z,79.50
2019-04-16T12:36:20.779Z,79.50
2019-04-16T12:39:09.823Z,79.70
2019-04-16T12:41:48.371Z,79.20
2019-04-16T12:44:44.384Z,78.80
2019-04-16T12:47:05.710Z,78.70
2019-04-16T12:49:54.943Z,78.50
2019-04-16T12:52:43.452Z,79.00
2019-04-16T12:55:23.816Z,79.40
2019-04-16T12:57:58.849Z,79.90
2019-04-16T13:00:36.179Z,80.10
2019-04-16T13:03:08.235Z,80.60
2019-04-16T13:06:01.502Z,80.90
2019-04-16T13:08:37.066Z,80.80
2019-04-16T13:11:21.681Z,81.20
2019-04-16T13:14:10.831Z,81.20
2019-04-16T13:17:01.681Z,81.20
2019-04-16T13:19:33.330Z,81.50
2019-04-16T13:22:05.789Z,81.70
2019-04-16T13:24:40.933Z,82.20
2019-04-16T13:27:13.542Z,82.40
2019-04-16T13:29:47.432Z,82.40
2019-04-16T13:32:18.083Z,82.20
2019-04-16T13:34:49.194Z,82.30
2019-04-16T13:37:36.476Z,82.30
2019-04-16T13:39:53.813Z,82.50
2019-04-16T13:42:27.568Z,82.60
2019-04-16T13:45:22.036Z,83.00
2019-04-16T13:47:55.987Z,83.20
2019-04-16T13:50:35.359Z,83.30
2019-04-16T13:53:06.617Z,83.60
2019-04-16T13:55:41.684Z,84.10
2019-04-16T13:58:29.063Z,84.20
2019-04-16T14:01:10.300Z,84.70
2019-04-16T14:03:39.757Z,84.80
2019-04-16T14:06:11.210Z,85.20
2019-04-16T14:08:43.769Z,85.20
2019-04-16T14:11:16.473Z,85.20
2019-04-16T14:13:50.090Z,85.00
2019-04-16T14:16:19.583Z,85.40
2019-04-16T14:19:09.459Z,85.80
2019-04-16T14:21:40.329Z,85.90
2019-04-16T14:24:12.537Z,85.90
2019-04-16T14:26:43.824Z,86.00
2019-04-16T14:29:14.759Z,86.30
2019-04-16T14:31:48.459Z,86.30
2019-04-16T14:34:22.898Z,86.90
2019-04-16T14:36:57.054Z,86.40
2019-04-16T14:39:29.063Z,86.60
2019-04-16T14:42:00.558Z,86.50
2019-04-16T14:44:34.585Z,86.60
2019-04-16T14:47:05.483Z,86.70
2019-04-16T14:49:36.217Z,86.90
2019-04-16T14:52:07.344Z,87.00
2019-04-16T14:54:45.793Z,87.00
2019-04-16T14:57:17.712Z,86.90
2019-04-16T14:59:50.727Z,87.10
2019-04-16T15:02:38.329Z,87.20
2019-04-16T15:05:15.568Z,87.30
2019-04-16T15:08:00.645Z,87.50
2019-04-16T15:10:45.624Z,87.20
2019-04-16T15:13:36.971Z,87.60
2019-04-16T15:19:18.025Z,87.30
2019-04-16T15:22:05.904Z,87.30
2019-04-16T15:24:47.582Z,87.10
2019-04-16T15:27:19.707Z,87.30
2019-04-16T15:29:52.631Z,87.40
2019-04-16T15:32:25.776Z,87.40
2019-04-16T15:34:58.051Z,87.20
2019-04-16T15:37:30.240Z,87.30
2019-04-16T15:40:07.239Z,87.40
2019-04-16T15:42:54.891Z,87.30
2019-04-16T15:45:31.226Z,87.20
2019-04-16T15:48:14.863Z,87.20
2019-04-16T15:50:54.867Z,87.40
2019-04-16T15:53:32.627Z,87.00
2019-04-16T15:56:07.956Z,86.80
2019-04-16T15:58:43.403Z,86.70
2019-04-16T16:01:21.510Z,86.80
2019-04-16T16:04:06.055Z,86.70
2019-04-16T16:06:38.536Z,87.20
2019-04-16T16:09:10.992Z,87.20
2019-04-16T16:11:44.553Z,87.50
2019-04-16T16:14:15.641Z,87.20
2019-04-16T16:16:47.833Z,87.40
2019-04-16T16:19:18.810Z,87.40
2019-04-16T16:21:49.601Z,87.50
2019-04-16T16:24:20.582Z,87.60
2019-04-16T16:26:51.357Z,87.50
2019-04-16T16:29:21.923Z,87.70
2019-04-16T16:31:56.183Z,87.70
2019-04-16T16:34:27.706Z,87.60
2019-04-16T16:36:58.717Z,87.20
2019-04-16T16:39:29.166Z,87.40
2019-04-16T16:41:59.866Z,87.40
2019-04-16T16:44:30.609Z,87.30
2019-04-16T16:47:17.793Z,87.10
2019-04-16T16:49:48.826Z,87.10
2019-04-16T16:52:37.124Z,87.40
2019-04-16T16:55:10.104Z,87.40
2019-04-16T16:57:45.405Z,87.60
2019-04-16T17:00:34.800Z,87.10
2019-04-16T17:03:09.746Z,86.80
2019-04-16T17:05:40.519Z,87.00
2019-04-16T17:08:11.235Z,87.30
2019-04-16T17:10:42.502Z,87.10
2019-04-16T17:13:15.722Z,86.90
2019-04-16T17:15:45.725Z,87.00
2019-04-16T17:18:16.706Z,86.80
2019-04-16T17:20:50.069Z,86.90
2019-04-16T17:23:19.666Z,87.00
2019-04-16T17:25:50.339Z,87.20
2019-04-16T17:28:20.927Z,87.20
2019-04-16T17:30:51.747Z,87.10
2019-04-16T17:33:22.418Z,87.00
2019-04-16T17:35:53.546Z,87.10
2019-04-16T17:38:24.515Z,87.40
2019-04-16T17:40:59.583Z,87.40
2019-04-16T17:43:30.168Z,87.20
2019-04-16T17:46:05.342Z,87.50
2019-04-16T17:48:43.910Z,86.70
2019-04-16T17:51:25.178Z,87.70
2019-04-16T17:54:12.662Z,88.00
2019-04-16T17:56:47.906Z,87.90
2019-04-16T17:59:23.450Z,88.10
2019-04-16T18:02:07.995Z,88.20
2019-04-16T18:04:46.341Z,88.40
2019-04-16T18:07:21.327Z,88.40
2019-04-16T18:10:00.411Z,88.80
2019-04-16T18:12:42.453Z,88.90
2019-04-16T18:15:14.833Z,88.80
2019-04-16T18:18:01.601Z,89.20
2019-04-16T18:20:32.077Z,89.20
2019-04-16T18:23:07.331Z,89.50
2019-04-16T18:25:55.655Z,89.70
2019-04-16T18:28:25.351Z,89.60
2019-04-16T18:31:03.958Z,89.80
2019-04-16T18:33:42.132Z,89.90
2019-04-16T18:36:33.533Z,90.00
2019-04-16T18:39:21.953Z,89.70
2019-04-16T18:41:56.769Z,89.50
2019-04-16T18:44:46.990Z,89.10
2019-04-16T18:47:21.812Z,89.20
2019-04-16T18:49:54.764Z,89.10
2019-04-16T18:52:25.728Z,89.30
2019-04-16T18:54:56.456Z,89.30
2019-04-16T18:57:27.294Z,89.30
2019-04-16T18:59:58.180Z,89.00
2019-04-16T19:02:30.312Z,88.90
2019-04-16T19:05:01.549Z,88.90
2019-04-16T19:07:32.311Z,89.90
2019-04-16T19:10:03.040Z,88.90
2019-04-16T19:12:33.924Z,88.60
2019-04-16T19:15:04.682Z,88.40
2019-04-16T19:17:35.420Z,88.60
2019-04-16T19:20:06.891Z,88.80
2019-04-16T19:22:37.591Z,88.90
2019-04-16T19:25:08.980Z,89.00
2019-04-16T19:27:42.015Z,88.90
2019-04-16T19:30:12.846Z,88.90
2019-04-16T19:32:43.506Z,88.90
2019-04-16T19:35:17.172Z,89.40
2019-04-16T19:37:46.985Z,89.00
2019-04-16T19:40:19.547Z,89.10
2019-04-16T19:42:50.402Z,89.00
2019-04-16T19:45:21.056Z,89.10
2019-04-16T19:47:51.815Z,89.40
2019-04-16T19:50:22.366Z,89.60
2019-04-16T19:52:53.119Z,89.80
2019-04-16T19:55:24.020Z,89.90
2019-04-16T19:57:57.487Z,90.00
2019-04-16T20:00:26.854Z,89.90
2019-04-16T20:02:57.739Z,89.60
2019-04-16T20:05:28.881Z,89.40
2019-04-16T20:08:01.371Z,89.50
2019-04-16T20:10:32.271Z,89.40
2019-04-16T20:13:03.157Z,88.70
2019-04-16T20:15:33.943Z,88.80
2019-04-16T20:18:06.526Z,88.80
2019-04-16T20:20:36.738Z,89.00
2019-04-16T20:23:07.554Z,88.90
2019-04-16T20:25:38.207Z,89.10
2019-04-16T20:28:09.636Z,89.10
2019-04-16T20:30:41.319Z,88.70
2019-04-16T20:33:12.011Z,89.10
2019-04-16T20:35:42.934Z,89.20
2019-04-16T20:38:16.979Z,89.10
2019-04-16T20:40:46.396Z,89.40
2019-04-16T20:43:17.118Z,89.70
2019-04-16T20:45:48.435Z,89.50
2019-04-16T20:48:19.154Z,89.70
2019-04-16T20:50:52.805Z,89.70
2019-04-16T20:53:22.610Z,89.80
2019-04-16T20:55:55.774Z,90.00
2019-04-16T20:58:31.252Z,90.10
2019-04-16T21:01:01.625Z,90.10
2019-04-16T21:03:32.413Z,90.10
2019-04-16T21:06:07.466Z,90.00
2019-04-16T21:08:35.484Z,89.60
2019-04-16T21:11:08.817Z,89.50
2019-04-16T21:13:39.737Z,88.90
2019-04-16T21:16:10.425Z,88.70
2019-04-16T21:18:41.131Z,88.80
2019-04-16T21:21:11.914Z,88.40
2019-04-16T21:23:42.615Z,88.50
2019-04-16T21:26:13.310Z,88.30
2019-04-16T21:28:45.699Z,88.50
2019-04-16T21:31:17.741Z,88.50
2019-04-16T21:33:52.229Z,88.80
2019-04-16T21:36:28.999Z,89.20
2019-04-16T21:39:10.929Z,89.40
2019-04-16T21:41:41.582Z,89.60
2019-04-16T21:44:13.213Z,89.70
2019-04-16T21:46:44.305Z,89.80
2019-04-16T21:49:14.959Z,89.70
2019-04-16T21:52:03.631Z,89.90
2019-04-16T21:54:34.347Z,90.00
2019-04-16T21:57:05.019Z,90.00
2019-04-16T21:59:35.914Z,90.20
2019-04-16T22:02:14.149Z,90.20
2019-04-16T22:04:45.444Z,90.20
2019-04-16T22:07:16.859Z,90.40
2019-04-16T22:09:47.590Z,90.20
2019-04-16T22:12:18.775Z,90.10
2019-04-16T22:14:51.026Z,90.20
2019-04-16T22:17:22.014Z,90.30
2019-04-16T22:19:58.023Z,90.20
2019-04-16T22:22:27.582Z,90.30
2019-04-16T22:24:57.113Z,90.30
2019-04-16T22:27:27.889Z,90.30
2019-04-16T22:29:59.003Z,90.30
2019-04-16T22:32:30.941Z,90.10
2019-04-16T22:35:02.317Z,90.20
2019-04-16T22:37:33.189Z,90.30
2019-04-16T22:40:22.852Z,90.30
2019-04-16T22:43:06.964Z,90.30
2019-04-16T22:45:47.497Z,90.00
2019-04-16T22:48:18.338Z,90.00
2019-04-16T22:50:49.001Z,90.10
2019-04-16T22:53:19.741Z,90.10
2019-04-16T22:56:03.830Z,90.10
2019-04-16T22:58:53.886Z,90.20
2019-04-16T23:01:26.931Z,90.30
2019-04-16T23:04:00.553Z,90.30
2019-04-16T23:06:37.994Z,90.40
2019-04-16T23:09:08.923Z,90.50
2019-04-16T23:11:39.901Z,90.40
2019-04-16T23:14:11.027Z,90.50
2019-04-16T23:16:42.774Z,90.50
2019-04-16T23:19:13.933Z,90.50
2019-04-16T23:21:44.651Z,90.60
2019-04-16T23:24:23.390Z,90.60
2019-04-16T23:26:54.723Z,90.70
2019-04-16T23:29:25.899Z,90.80
2019-04-16T23:31:57.797Z,91.00
2019-04-16T23:34:28.517Z,90.80
2019-04-16T23:37:00.212Z,90.70
2019-04-16T23:39:33.574Z,90.80
2019-04-16T23:42:03.251Z,90.90
2019-04-16T23:44:46.629Z,91.30
2019-04-16T23:47:28.284Z,90.90
2019-04-16T23:50:03.420Z,90.90
2019-04-16T23:52:35.827Z,91.00
2019-04-16T23:55:20.424Z,91.10
2019-04-16T23:57:56.843Z,91.00
